Time;durP1;ratioP1;P1;durP2;ratioP2;P2;SDS_P1;SDS_P2;PMS_P1;PMS_P2;Temp;Humidity;BMP_temperature;BMP_pressure;BME280_temperature;BME280_humidity;BME280_pressure;Samples;Min_cycle;Max_cycle;Signal;HPM_P1;HPM_P2
2023/02/13 00:00:19;;;;;;;;;43.50;36.75;;;;;7.39;100.00;103190.75;4998990;28;45477;-74
2023/02/13 00:02:44;;;;;;;;;40.75;30.75;;;;;7.38;100.00;103191.59;4996097;28;47172;-74
2023/02/13 00:05:09;;;;;;;;;47.00;34.75;;;;;7.37;100.00;103189.78;5015533;28;48700;-74
2023/02/13 00:07:35;;;;;;;;;42.50;32.50;;;;;7.37;100.00;103195.03;5012824;28;45831;-74
2023/02/13 00:10:00;;;;;;;;;50.25;39.00;;;;;7.37;100.00;103195.03;5015777;28;45623;-75
2023/02/13 00:12:26;;;;;;;;;45.25;38.50;;;;;7.35;100.00;103194.94;5009673;28;46411;-74
2023/02/13 00:14:51;;;;;;;;;51.50;40.00;;;;;7.30;100.00;103190.22;5001747;28;51307;-74
2023/02/13 00:17:16;;;;;;;;;46.50;37.75;;;;;7.32;100.00;103185.94;5001058;28;45972;-74
2023/02/13 00:19:42;;;;;;;;;60.00;38.25;;;;;7.27;100.00;103179.50;5013166;28;45613;-76
2023/02/13 00:22:08;;;;;;;;;51.50;42.75;;;;;7.26;100.00;103186.47;5000931;28;45848;-77
2023/02/13 00:24:34;;;;;;;;;48.75;37.25;;;;;7.27;100.00;103195.25;5010513;28;45645;-76
2023/02/13 00:26:59;;;;;;;;;49.00;39.00;;;;;7.24;100.00;103189.81;5015107;28;45501;-77
2023/02/13 00:29:24;;;;;;;;;53.75;39.25;;;;;7.23;100.00;103180.13;5016751;28;46501;-74
2023/02/13 00:31:50;;;;;;;;;37.50;32.50;;;;;7.20;100.00;103179.94;4998482;28;49286;-75
2023/02/13 00:34:15;;;;;;;;;44.00;40.25;;;;;7.21;100.00;103179.13;5009465;28;45524;-75
2023/02/13 00:36:41;;;;;;;;;49.25;38.00;;;;;7.20;100.00;103183.47;4997751;28;45719;-75
2023/02/13 00:39:07;;;;;;;;;47.25;39.00;;;;;7.16;100.00;103178.84;5011967;28;45483;-76
2023/02/13 00:41:33;;;;;;;;;56.00;41.75;;;;;7.17;100.00;103190.25;4998507;28;46619;-74
2023/02/13 00:43:58;;;;;;;;;55.25;38.75;;;;;7.15;100.00;103192.78;5015365;28;49177;-74
2023/02/13 00:46:23;;;;;;;;;45.25;38.00;;;;;7.15;100.00;103186.63;5015943;28;45228;-76
2023/02/13 00:48:49;;;;;;;;;33.00;31.00;;;;;7.11;100.00;103187.25;5015994;28;45423;-74
2023/02/13 00:51:14;;;;;;;;;45.25;37.25;;;;;7.10;100.00;103178.47;5011690;28;45582;-74
2023/02/13 00:53:40;;;;;;;;;41.50;36.75;;;;;7.12;100.00;103184.69;5011529;28;45484;-74
2023/02/13 00:56:06;;;;;;;;;44.50;35.25;;;;;7.10;100.00;103178.47;4999520;28;45504;-74
2023/02/13 00:58:32;;;;;;;;;38.75;35.25;;;;;7.07;100.00;103184.41;5015491;28;45487;-76
2023/02/13 01:00:58;;;;;;;;;42.25;34.50;;;;;7.08;100.00;103180.06;5008196;28;45564;-74
2023/02/13 01:03:23;;;;;;;;;47.00;31.50;;;;;7.07;100.00;103171.28;5014683;28;45366;-74
2023/02/13 01:05:49;;;;;;;;;40.75;30.75;;;;;7.07;100.00;103178.25;4999716;28;45556;-74
2023/02/13 01:08:16;;;;;;;;;43.50;33.00;;;;;7.01;100.00;103167.38;5012938;28;45636;-74
2023/02/13 01:10:42;;;;;;;;;38.50;30.75;;;;;7.07;100.00;103170.38;4997612;28;46777;-75
2023/02/13 01:13:08;;;;;;;;;37.00;27.25;;;;;7.04;100.00;103171.09;5014888;28;45373;-74
2023/02/13 01:15:34;;;;;;;;;33.25;28.25;;;;;7.04;100.00;103170.19;4981085;28;45509;-75
2023/02/13 01:18:00;;;;;;;;;36.75;25.00;;;;;7.02;100.00;103166.53;5010803;28;45472;-74
2023/02/13 01:20:27;;;;;;;;;36.00;31.00;;;;;7.02;100.00;103171.78;5019506;28;45694;-74
2023/02/13 01:22:52;;;;;;;;;32.00;30.25;;;;;7.00;100.00;103169.09;5004219;28;46332;-74
2023/02/13 01:25:17;;;;;;;;;29.00;24.50;;;;;6.97;100.00;103166.25;4997950;28;45344;-74
2023/02/13 01:27:43;;;;;;;;;29.75;27.00;;;;;6.95;100.00;103162.63;5016049;28;45638;-75
2023/02/13 01:30:13;;;;;;;;;34.75;29.25;;;;;6.96;100.00;103168.78;5015019;28;46456;-74
2023/02/13 01:32:39;;;;;;;;;39.75;31.25;;;;;6.96;100.00;103171.41;4999862;28;45453;-74
2023/02/13 01:35:06;;;;;;;;;34.00;30.25;;;;;6.96;100.00;103174.03;4997510;28;45540;-76
2023/02/13 01:37:31;;;;;;;;;35.50;29.75;;;;;6.94;100.00;103173.06;5015337;28;45473;-75
2023/02/13 01:39:57;;;;;;;;;22.50;22.25;;;;;6.96;100.00;103172.31;5006066;28;50501;-74
2023/02/13 01:42:29;;;;;;;;;31.75;22.50;;;;;6.92;100.00;103156.25;5009602;28;45504;-74
2023/02/13 01:44:56;;;;;;;;;37.50;27.75;;;;;6.94;100.00;103165.16;5002369;28;45565;-75
2023/02/13 01:47:33;;;;;;;;;28.50;24.75;;;;;6.92;100.00;103162.41;4997830;28;45714;-73
2023/02/13 01:50:23;;;;;;;;;29.25;25.00;;;;;6.89;100.00;103166.59;5012362;28;46078;-76
2023/02/13 01:53:05;;;;;;;;;31.00;22.75;;;;;6.91;100.00;103173.75;5012276;28;45445;-76
2023/02/13 01:55:31;;;;;;;;;34.25;28.00;;;;;6.89;100.00;103164.88;5014855;28;45437;-76
2023/02/13 01:58:04;;;;;;;;;37.00;25.75;;;;;6.88;100.00;103170.94;4995642;28;45626;-74
2023/02/13 02:00:29;;;;;;;;;34.50;24.50;;;;;6.89;100.00;103169.22;5013824;28;46688;-74
2023/02/13 02:03:04;;;;;;;;;31.50;26.75;;;;;6.88;100.00;103172.66;5009967;28;45508;-75
2023/02/13 02:05:31;;;;;;;;;33.75;25.50;;;;;6.89;100.00;103171.84;5014338;28;45447;-74
2023/02/13 02:07:57;;;;;;;;;28.50;24.50;;;;;6.87;100.00;103166.50;4996562;28;45477;-74
2023/02/13 02:10:23;;;;;;;;;21.00;20.50;;;;;6.86;100.00;103164.66;4992459;28;45348;-74
2023/02/13 02:13:11;;;;;;;;;28.50;26.25;;;;;6.85;100.00;103165.47;5014494;28;45457;-74
2023/02/13 02:15:36;;;;;;;;;34.50;22.75;;;;;6.82;100.00;103158.34;5008063;28;45498;-74
2023/02/13 02:18:02;;;;;;;;;31.50;25.00;;;;;6.85;100.00;103173.34;5008620;28;45472;-75
2023/02/13 02:20:56;;;;;;;;;27.00;21.25;;;;;6.85;100.00;103173.34;5011194;28;46711;-75
2023/02/13 02:23:40;;;;;;;;;29.50;26.50;;;;;6.85;100.00;103172.47;5013833;28;45428;-74
2023/02/13 02:26:33;;;;;;;;;30.75;26.25;;;;;6.83;100.00;103175.00;5016646;28;45553;-75
2023/02/13 02:29:04;;;;;;;;;36.50;28.00;;;;;6.83;100.00;103177.63;5008215;28;45286;-75
2023/02/13 02:32:01;;;;;;;;;36.50;27.50;;;;;6.82;100.00;103178.44;5016602;28;45916;-74
2023/02/13 02:34:37;;;;;;;;;34.75;29.25;;;;;6.81;100.00;103181.84;4999779;28;45439;-75
2023/02/13 02:37:12;;;;;;;;;41.00;25.50;;;;;6.80;100.00;103162.56;5000038;28;45504;-74
2023/02/13 02:40:07;;;;;;;;;32.00;26.75;;;;;6.79;100.00;103162.47;5013735;28;45475;-74
2023/02/13 02:43:07;;;;;;;;;33.75;26.50;;;;;6.77;100.00;103165.00;5016230;28;46760;-74
2023/02/13 02:46:05;;;;;;;;;33.50;29.75;;;;;6.75;100.00;103150.84;5014846;28;45444;-76
2023/02/13 02:51:49;;;;;;;;;44.00;31.00;;;;;6.76;100.00;103157.00;5012513;28;45295;-75
2023/02/13 02:57:10;;;;;;;;;42.25;30.00;;;;;6.77;100.00;103151.88;5017354;28;45512;-74
2023/02/13 03:08:02;;;;;;;;;39.25;32.75;;;;;6.79;100.00;103159.84;5013996;28;45489;-74
2023/02/13 03:13:27;;;;;;;;;36.75;30.00;;;;;6.80;100.00;103167.81;5011442;28;45503;-74
2023/02/13 03:22:17;;;;;;;;;37.00;29.50;;;;;6.78;100.00;103161.56;5017043;28;46541;-74
2023/02/13 03:25:10;;;;;;;;;37.75;33.00;;;;;6.76;100.00;103168.41;5006805;28;45369;-75
2023/02/13 03:30:50;;;;;;;;;30.75;27.75;;;;;6.74;100.00;103161.28;5016026;28;45537;-76
2023/02/13 03:33:29;;;;;;;;;34.00;27.25;;;;;6.72;100.00;103155.94;5010713;28;45356;-74
2023/02/13 03:39:03;;;;;;;;;34.00;26.25;;;;;6.71;100.00;103154.13;5001190;28;45929;-74
2023/02/13 03:41:31;;;;;;;;;31.75;26.00;;;;;6.71;100.00;103155.81;5012760;28;45530;-75
2023/02/13 03:44:02;;;;;;;;;38.25;28.00;;;;;6.69;100.00;103155.72;5013148;28;45404;-75
2023/02/13 03:46:32;;;;;;;;;36.00;26.25;;;;;6.66;100.00;103152.91;5013951;28;45366;-76
2023/02/13 03:51:50;;;;;;;;;35.25;30.00;;;;;6.67;100.00;103153.81;5000176;28;45685;-76
2023/02/13 04:00:01;;;;;;;;;43.25;33.25;;;;;6.64;100.00;103151.91;5001411;28;45369;-74
2023/02/13 04:02:33;;;;;;;;;44.50;29.50;;;;;6.58;100.00;103141.00;5013336;28;45515;-76
2023/02/13 04:05:06;;;;;;;;;43.00;29.75;;;;;6.61;100.00;103146.47;4997598;28;45446;-74
2023/02/13 04:07:32;;;;;;;;;41.75;31.50;;;;;6.63;100.00;103146.56;4999022;28;45580;-75
2023/02/13 04:10:09;;;;;;;;;35.75;29.50;;;;;6.61;100.00;103148.19;5014473;28;45615;-75
2023/02/13 04:12:38;;;;;;;;;34.50;29.25;;;;;6.62;100.00;103152.63;5006843;28;45345;-74
2023/02/13 04:15:16;;;;;;;;;31.75;25.50;;;;;6.61;100.00;103159.59;5016408;28;45521;-74
2023/02/13 04:17:46;;;;;;;;;40.00;31.75;;;;;6.61;100.00;103150.81;5011187;28;45631;-74
2023/02/13 04:20:11;;;;;;;;;37.50;30.00;;;;;6.59;100.00;103153.31;5017284;28;46268;-76
2023/02/13 04:22:47;;;;;;;;;42.00;35.25;;;;;6.61;100.00;103162.22;5015297;28;45386;-74
2023/02/13 04:25:15;;;;;;;;;39.00;30.00;;;;;6.59;100.00;103161.19;5014251;28;45463;-76
2023/02/13 04:27:40;;;;;;;;;44.75;32.50;;;;;6.60;100.00;103168.25;4998702;28;45634;-74
2023/02/13 04:30:06;;;;;;;;;30.75;25.75;;;;;6.59;100.00;103165.53;4983757;28;48398;-74
2023/02/13 04:32:31;;;;;;;;;44.25;30.25;;;;;6.59;100.00;103161.19;5014640;28;45342;-74
2023/02/13 04:34:57;;;;;;;;;39.25;32.75;;;;;6.59;100.00;103160.28;5008026;28;45539;-74
2023/02/13 04:37:23;;;;;;;;;36.75;27.75;;;;;6.57;100.00;103157.56;4981271;28;45434;-74
2023/02/13 04:39:48;;;;;;;;;30.75;28.25;;;;;6.58;100.00;103156.75;5013742;28;46413;-74
2023/02/13 04:42:14;;;;;;;;;43.50;26.25;;;;;6.58;100.00;103154.13;5016340;28;45497;-75
2023/02/13 04:44:39;;;;;;;;;33.50;23.50;;;;;6.59;100.00;103157.66;5007434;28;45556;-74
2023/02/13 04:47:04;;;;;;;;;33.00;23.75;;;;;6.57;100.00;103152.31;5016690;28;45346;-74
2023/02/13 04:49:30;;;;;;;;;29.75;25.50;;;;;6.56;100.00;103158.38;5014809;28;49946;-74
2023/02/13 04:51:55;;;;;;;;;32.75;31.25;;;;;6.54;100.00;103153.00;4998228;28;45531;-74
2023/02/13 04:54:20;;;;;;;;;34.75;27.00;;;;;6.56;100.00;103151.41;5010915;28;45822;-74
2023/02/13 04:56:46;;;;;;;;;38.25;25.00;;;;;6.55;100.00;103157.47;5015590;28;45379;-75
2023/02/13 04:59:11;;;;;;;;;40.50;31.00;;;;;6.55;100.00;103156.53;5000796;28;47670;-75
2023/02/13 05:01:36;;;;;;;;;37.25;25.50;;;;;6.50;100.00;103152.75;4999514;28;45453;-76
2023/02/13 05:04:02;;;;;;;;;36.75;25.00;;;;;6.50;100.00;103165.88;5012116;28;45363;-73
2023/02/13 05:06:27;;;;;;;;;31.50;24.75;;;;;6.48;100.00;103163.13;5012362;28;45256;-74
2023/02/13 05:08:53;;;;;;;;;38.75;31.00;;;;;6.46;100.00;103159.50;5009002;28;46566;-74
2023/02/13 05:11:18;;;;;;;;;33.75;29.75;;;;;6.38;100.00;103151.91;4997841;28;48107;-75
2023/02/13 05:13:43;;;;;;;;;28.50;24.75;;;;;6.36;100.00;103148.31;5015514;28;45444;-74
2023/02/13 05:16:09;;;;;;;;;46.25;33.00;;;;;6.36;100.00;103143.97;5007810;28;45490;-74
2023/02/13 05:18:34;;;;;;;;;32.50;26.75;;;;;6.37;100.00;103157.97;5000269;28;48127;-74
2023/02/13 05:23:43;;;;;;;;;34.50;29.00;;;;;6.36;100.00;103153.56;5014789;28;45500;-74
2023/02/13 05:26:09;;;;;;;;;33.75;26.00;;;;;6.36;100.00;103151.84;4997085;28;45379;-74
2023/02/13 05:31:18;;;;;;;;;28.75;21.75;;;;;6.33;100.00;103150.72;5002643;28;45523;-76
2023/02/13 05:33:43;;;;;;;;;30.75;28.00;;;;;6.28;100.00;103146.09;5014318;28;45743;-74
2023/02/13 05:36:09;;;;;;;;;33.75;29.25;;;;;6.28;100.00;103147.78;5015516;28;45394;-74
2023/02/13 05:38:34;;;;;;;;;34.75;26.00;;;;;6.27;100.00;103144.25;5014912;28;46809;-74
2023/02/13 05:41:00;;;;;;;;;33.25;25.00;;;;;6.27;100.00;103143.34;5012368;28;45215;-75
2023/02/13 05:43:26;;;;;;;;;39.75;28.75;;;;;6.28;100.00;103147.78;4997893;28;45519;-74
2023/02/13 05:46:08;;;;;;;;;40.25;28.00;;;;;6.26;100.00;103152.03;5013712;28;45491;-75
2023/02/13 05:48:34;;;;;;;;;37.25;25.25;;;;;6.27;100.00;103160.00;5013657;28;45936;-74
2023/02/13 05:51:00;;;;;;;;;28.25;23.25;;;;;6.24;100.00;103148.41;4996538;28;45495;-74
2023/02/13 05:53:26;;;;;;;;;37.50;30.00;;;;;6.23;100.00;103152.75;5015700;28;45484;-74
2023/02/13 05:55:51;;;;;;;;;34.25;29.00;;;;;6.24;100.00;103148.41;5013318;28;45303;-74
2023/02/13 05:58:18;;;;;;;;;28.00;24.00;;;;;6.20;100.00;103141.16;4984589;28;48761;-75
2023/02/13 06:00:44;;;;;;;;;35.75;28.50;;;;;6.20;100.00;103139.41;5001204;28;45604;-75
2023/02/13 06:03:09;;;;;;;;;31.25;22.75;;;;;6.18;100.00;103145.34;4999384;28;45391;-74
2023/02/13 06:05:35;;;;;;;;;40.50;26.75;;;;;6.18;100.00;103159.41;4999636;28;45516;-76
2023/02/13 06:08:00;;;;;;;;;35.25;27.25;;;;;6.16;100.00;103154.84;5011474;28;55105;-75
2023/02/13 06:10:25;;;;;;;;;35.00;27.50;;;;;6.12;100.00;103153.72;5018384;28;45405;-76
2023/02/13 06:12:51;;;;;;;;;29.00;21.25;;;;;6.13;100.00;103157.28;5000067;28;45653;-77
2023/02/13 06:15:16;;;;;;;;;30.75;25.25;;;;;6.11;100.00;103157.16;5014851;28;45363;-77
2023/02/13 06:17:41;;;;;;;;;29.75;24.00;;;;;6.11;100.00;103156.25;5011802;28;45574;-75
2023/02/13 06:20:08;;;;;;;;;33.50;28.50;;;;;6.09;100.00;103169.28;5020451;28;50551;-75
2023/02/13 06:22:33;;;;;;;;;34.25;26.25;;;;;6.10;100.00;103163.22;4997754;28;45471;-77
2023/02/13 06:24:58;;;;;;;;;29.75;24.50;;;;;6.09;100.00;103166.66;5014840;28;45540;-76
2023/02/13 06:27:24;;;;;;;;;30.25;26.25;;;;;6.09;100.00;103161.41;5016840;28;50030;-75
2023/02/13 06:29:49;;;;;;;;;30.00;24.00;;;;;6.11;100.00;103164.13;5017939;28;45419;-75
2023/02/13 06:32:14;;;;;;;;;32.00;26.75;;;;;6.10;100.00;103157.06;5000020;28;45512;-75
2023/02/13 06:34:40;;;;;;;;;33.25;24.50;;;;;6.10;100.00;103163.22;4983929;28;45405;-76
2023/02/13 06:37:05;;;;;;;;;34.75;27.00;;;;;6.14;100.00;103174.84;5015474;28;46411;-75
2023/02/13 06:39:30;;;;;;;;;41.25;33.75;;;;;6.15;100.00;103171.41;5017170;28;45381;-77
2023/02/13 06:41:56;;;;;;;;;38.25;31.25;;;;;6.15;100.00;103172.31;4983425;28;47187;-76
2023/02/13 06:44:21;;;;;;;;;38.25;28.25;;;;;6.15;100.00;103174.94;5017470;28;45528;-75
2023/02/13 06:46:47;;;;;;;;;36.00;28.00;;;;;6.14;100.00;103178.38;5017736;28;52666;-75
2023/02/13 06:49:12;;;;;;;;;30.75;23.50;;;;;6.13;100.00;103175.66;5017632;28;47065;-75
2023/02/13 06:51:37;;;;;;;;;37.75;27.75;;;;;6.15;100.00;103180.19;5017855;28;45490;-75
2023/02/13 06:54:03;;;;;;;;;31.25;27.25;;;;;6.15;100.00;103185.44;5017491;28;45269;-76
2023/02/13 06:56:28;;;;;;;;;41.50;27.75;;;;;6.15;100.00;103179.28;4999847;28;50147;-76
2023/02/13 06:58:54;;;;;;;;;32.00;26.25;;;;;6.15;100.00;103180.19;5017542;28;45311;-76
2023/02/13 07:01:19;;;;;;;;;39.75;31.75;;;;;6.15;100.00;103184.53;5018039;28;45610;-77
2023/02/13 07:03:45;;;;;;;;;37.75;31.50;;;;;6.14;100.00;103172.22;5016794;28;45390;-75
2023/02/13 07:06:16;;;;;;;;;38.50;24.50;;;;;6.12;100.00;103185.22;4999683;28;45690;-77
2023/02/13 07:08:42;;;;;;;;;37.25;27.50;;;;;6.14;100.00;103188.84;4994110;28;45310;-76
2023/02/13 07:11:07;;;;;;;;;38.25;24.75;;;;;6.16;100.00;103189.84;5015614;28;45494;-74
2023/02/13 07:13:32;;;;;;;;;37.25;34.25;;;;;6.15;100.00;103188.06;5016664;28;45488;-76
2023/02/13 07:16:00;;;;;;;;;32.50;24.75;;;;;6.16;100.00;103182.00;4990216;28;46996;-76
2023/02/13 07:18:25;;;;;;;;;32.50;25.25;;;;;6.14;100.00;103188.84;4996931;28;45621;-74
2023/02/13 07:20:51;;;;;;;;;31.25;20.00;;;;;6.17;100.00;103199.53;4997512;28;45559;-73
2023/02/13 07:23:16;;;;;;;;;35.75;28.50;;;;;6.18;100.00;103195.19;5016084;28;45571;-74
2023/02/13 07:25:41;;;;;;;;;37.25;27.50;;;;;6.11;100.00;103199.13;5024341;28;46653;-75
2023/02/13 07:28:07;;;;;;;;;39.50;31.75;;;;;5.98;100.00;103196.50;4995828;28;48811;-74
2023/02/13 07:30:33;;;;;;;;;40.50;30.00;;;;;5.92;100.00;103211.84;4994659;28;45850;-74
2023/02/13 07:33:00;;;;;;;;;43.25;32.25;;;;;5.75;100.00;103218.47;5011837;28;45534;-74
2023/02/13 07:35:25;;;;;;;;;33.00;27.75;;;;;5.62;100.00;103215.84;5020721;28;46890;-75
2023/02/13 07:37:52;;;;;;;;;40.25;30.50;;;;;5.52;100.00;103211.66;5014597;28;45517;-72
2023/02/13 07:40:18;;;;;;;;;44.75;31.25;;;;;5.44;100.00;103221.63;5016007;28;45430;-74
2023/02/13 07:42:43;;;;;;;;;42.00;32.00;;;;;5.39;100.00;103224.72;4998540;28;45491;-76
2023/02/13 07:45:10;;;;;;;;;39.00;31.00;;;;;5.37;100.00;103221.06;5021532;28;46467;-75
2023/02/13 07:47:36;;;;;;;;;36.25;29.75;;;;;5.43;100.00;103219.81;5013991;28;45489;-73
2023/02/13 07:50:04;;;;;;;;;36.00;28.25;;;;;5.51;100.00;103213.38;5011358;28;46465;-74
2023/02/13 07:52:30;;;;;;;;;38.75;31.50;;;;;5.62;100.00;103208.88;5016058;28;45394;-73
2023/02/13 07:54:55;;;;;;;;;36.50;32.75;;;;;5.72;100.00;103218.28;4981697;28;47018;-74
2023/02/13 07:57:21;;;;;;;;;43.25;35.25;;;;;5.80;100.00;103224.94;5011680;28;45541;-73
2023/02/13 07:59:46;;;;;;;;;37.00;29.75;;;;;5.85;100.00;103214.78;5014668;28;45552;-74
2023/02/13 08:02:13;;;;;;;;;40.25;30.50;;;;;5.92;100.00;103215.34;5125240;22;46433;-75
2023/02/13 08:04:39;;;;;;;;;37.75;35.25;;;;;5.95;100.00;103202.44;5019039;28;46789;-75
2023/02/13 08:07:04;;;;;;;;;41.50;35.00;;;;;5.99;100.00;103212.34;5034173;28;46863;-74
2023/02/13 08:12:13;;;;;;;;;37.50;32.50;;;;;6.09;100.00;103208.63;5035811;28;45499;-74
2023/02/13 08:14:38;;;;;;;;;45.50;34.75;;;;;6.16;100.00;103217.81;5034078;28;58429;-73
2023/02/13 08:17:04;;;;;;;;;44.00;29.75;;;;;6.21;100.00;103209.44;5040722;28;53460;-74
2023/02/13 08:19:29;;;;;;;;;41.25;32.75;;;;;6.25;100.00;103207.94;5024692;28;48595;-73
2023/02/13 08:21:55;;;;;;;;;51.00;35.50;;;;;6.30;100.00;103207.44;5039461;28;45464;-74
2023/02/13 08:24:20;;;;;;;;;38.25;29.75;;;;;6.34;100.00;103210.25;5023943;28;45368;-76
2023/02/13 08:26:46;;;;;;;;;44.75;39.00;;;;;6.40;100.00;103214.22;5015990;28;45405;-75
2023/02/13 08:29:11;;;;;;;;;39.75;29.75;;;;;6.45;100.00;103222.38;5024265;28;45429;-75
2023/02/13 08:31:37;;;;;;;;;37.00;33.75;;;;;6.48;100.00;103220.84;5045615;28;45333;-76
2023/02/13 08:34:02;;;;;;;;;50.25;38.00;;;;;6.53;100.00;103223.78;5036632;28;46033;-76
2023/02/13 08:36:28;;;;;;;;;43.25;31.25;;;;;6.56;100.00;103226.63;5037170;28;46189;-75
2023/02/13 08:38:53;;;;;;;;;47.50;38.75;;;;;6.61;100.00;103219.06;5043319;28;45541;-77
2023/02/13 08:41:21;;;;;;;;;42.75;38.00;;;;;6.64;100.00;103211.38;5023755;28;45458;-77
2023/02/13 08:43:46;;;;;;;;;48.50;34.50;;;;;6.67;100.00;103214.19;5027420;28;46930;-75
2023/02/13 08:46:12;;;;;;;;;46.50;33.00;;;;;6.73;100.00;103222.47;5021910;28;45548;-77
2023/02/13 08:48:37;;;;;;;;;45.50;36.75;;;;;6.78;100.00;103223.69;5015036;28;45569;-77
2023/02/13 08:51:07;;;;;;;;;48.00;38.25;;;;;6.80;100.00;103217.69;5033756;28;45546;-76
2023/02/13 08:53:33;;;;;;;;;46.75;29.75;;;;;6.83;100.00;103212.66;5034816;28;45887;-77
2023/02/13 08:55:58;;;;;;;;;43.50;37.00;;;;;6.88;100.00;103215.59;5017670;28;45480;-75
2023/02/13 08:58:24;;;;;;;;;50.25;35.25;;;;;6.95;100.00;103230.91;5021455;28;52504;-76
2023/02/13 09:00:49;;;;;;;;;38.75;37.50;;;;;7.00;100.00;103223.34;5034482;28;45557;-76
2023/02/13 09:03:15;;;;;;;;;42.25;33.00;;;;;7.06;100.00;103223.72;5035991;28;47080;-76
2023/02/13 09:05:40;;;;;;;;;55.00;35.75;;;;;7.11;100.00;103224.03;5035835;28;58397;-76
2023/02/13 09:08:07;;;;;;;;;40.50;31.50;;;;;7.15;100.00;103234.81;5027752;28;46125;-76
2023/02/13 09:10:33;;;;;;;;;54.50;35.50;;;;;7.20;100.00;103224.63;5033161;28;45564;-75
2023/02/13 09:13:00;;;;;;;;;44.00;35.75;;;;;7.23;100.00;103223.06;5041067;28;46518;-76
2023/02/13 09:15:25;;;;;;;;;41.25;39.25;;;;;7.27;100.00;103217.19;5018163;28;45615;-78
2023/02/13 09:17:51;;;;;;;;;51.75;38.50;;;;;7.34;100.00;103214.13;5011676;28;45833;-77
2023/02/13 09:20:16;;;;;;;;;38.75;37.00;;;;;7.36;100.00;103214.25;5030727;28;45544;-79
2023/02/13 09:22:41;;;;;;;;;43.25;36.50;;;;;7.43;100.00;103220.78;5040295;28;60601;-78
2023/02/13 09:25:08;;;;;;;;;43.50;37.25;;;;;7.45;100.00;103225.31;5025049;28;45481;-78
2023/02/13 09:27:34;;;;;;;;;47.25;40.00;;;;;7.48;100.00;103222.88;5018273;28;45529;-76
2023/02/13 09:30:00;;;;;;;;;55.75;37.00;;;;;7.49;100.00;103223.78;5020004;28;45496;-73
2023/02/13 09:32:25;;;;;;;;;51.75;40.25;;;;;7.56;100.00;103218.09;5036326;28;60897;-74
2023/02/13 09:34:51;;;;;;;;;48.50;36.75;;;;;7.61;100.00;103224.53;5030846;28;45555;-75
2023/02/13 09:37:16;;;;;;;;;50.50;34.25;;;;;7.66;100.00;103227.44;5031456;28;53463;-75
2023/02/13 09:39:41;;;;;;;;;41.25;35.25;;;;;7.70;100.00;103214.59;5035604;28;46383;-75
2023/02/13 09:42:26;;;;;;;;;55.50;41.00;;;;;7.76;100.00;103214.06;5019236;28;45995;-75
2023/02/13 09:44:58;;;;;;;;;60.75;41.00;;;;;7.81;100.00;103215.22;5032105;28;45812;-75
2023/02/13 09:47:39;;;;;;;;;54.75;40.75;;;;;7.87;100.00;103227.03;5003522;28;45496;-74
2023/02/13 09:50:15;;;;;;;;;63.75;43.75;;;;;7.97;100.00;103225.88;5015170;28;45673;-75
2023/02/13 09:52:43;;;;;;;;;48.25;37.00;;;;;8.05;100.00;103226.34;5035840;28;46202;-75
2023/02/13 09:55:17;;;;;;;;;45.75;33.00;;;;;8.13;100.00;103222.41;5018825;28;46012;-74
2023/02/13 09:58:09;;;;;;;;;54.75;42.25;;;;;8.17;100.00;103219.16;4998475;28;46138;-75
2023/02/13 10:00:39;;;;;;;;;61.25;45.50;;;;;8.26;100.00;103226.72;5018160;28;45506;-75
2023/02/13 10:03:14;;;;;;;;;53.75;42.00;;;;;8.31;100.00;103223.53;5020980;28;46058;-75
2023/02/13 10:05:49;;;;;;;;;62.00;46.75;;;;;8.37;100.00;103223.91;5030384;28;45471;-74
2023/02/13 10:08:29;;;;;;;;;60.25;42.75;;;;;8.44;100.00;103222.53;5016690;28;45566;-74
2023/02/13 10:11:24;;;;;;;;;57.00;42.75;;;;;8.50;100.00;103222.88;5016548;28;45714;-75
2023/02/13 10:13:52;;;;;;;;;62.25;40.75;;;;;8.55;100.00;103212.63;5012649;28;45606;-76
2023/02/13 10:16:37;;;;;;;;;57.75;44.00;;;;;8.75;100.00;103222.56;5018722;28;45467;-75
2023/02/13 10:19:12;;;;;;;;;51.50;37.50;;;;;8.80;100.00;103209.66;5016661;28;45507;-74
2023/02/13 10:21:47;;;;;;;;;55.50;39.50;;;;;8.77;100.00;103218.28;5037915;28;45687;-76
2023/02/13 10:24:30;;;;;;;;;58.25;42.25;;;;;8.77;100.00;103220.91;5009122;28;45936;-76
2023/02/13 10:26:56;;;;;;;;;55.00;43.00;;;;;8.80;100.00;103209.66;5032975;28;46739;-76
2023/02/13 10:32:17;;;;;;;;;50.00;37.00;;;;;8.92;100.00;103203.34;5013660;28;45365;-76
2023/02/13 10:34:44;;;;;;;;;43.50;34.50;;;;;9.02;100.00;103209.13;5015312;28;46818;-75
2023/02/13 10:37:16;;;;;;;;;42.75;35.25;;;;;9.08;100.00;103207.75;5013497;28;45573;-75
2023/02/13 10:39:45;;;;;;;;;40.00;34.00;;;;;9.16;100.00;103200.22;5012400;28;45534;-75
2023/02/13 10:42:21;;;;;;;;;46.25;35.00;;;;;9.24;100.00;103201.56;5022594;28;45309;-77
2023/02/13 10:45:24;;;;;;;;;58.00;36.75;;;;;9.33;100.00;103211.72;5013557;28;46540;-74
2023/02/13 10:48:09;;;;;;;;;46.75;38.50;;;;;9.41;100.00;103208.66;5016854;28;45524;-75
2023/02/13 10:50:53;;;;;;;;;47.50;36.75;;;;;9.47;100.00;103207.19;5017717;28;45440;-74
2023/02/13 10:53:27;;;;;;;;;40.75;33.25;;;;;9.53;100.00;103200.50;5012727;28;46113;-74
2023/02/13 10:56:22;;;;;;;;;52.00;36.50;;;;;9.60;100.00;103197.38;5018917;28;45723;-75
2023/02/13 10:59:11;;;;;;;;;47.25;35.75;;;;;9.63;100.00;103189.59;5019413;28;46597;-75
2023/02/13 11:01:54;;;;;;;;;47.75;38.00;;;;;9.74;100.00;103181.34;5017438;28;45735;-76
2023/02/13 11:04:20;;;;;;;;;47.50;36.75;;;;;9.81;100.00;103183.50;5020614;28;45377;-75
2023/02/13 11:06:58;;;;;;;;;46.00;34.75;;;;;9.87;100.00;103179.44;5019343;28;46432;-75
2023/02/13 11:09:24;;;;;;;;;42.25;34.50;;;;;9.94;100.00;103178.00;5019013;28;47511;-74
2023/02/13 11:11:49;;;;;;;;;46.50;36.25;;;;;10.00;100.00;103172.13;5017793;28;45378;-76
2023/02/13 11:14:15;;;;;;;;;50.25;37.50;;;;;10.07;100.00;103179.56;5016895;28;45445;-74
2023/02/13 11:17:01;;;;;;;;;41.25;34.00;;;;;10.13;100.00;103177.22;5015088;28;48455;-76
2023/02/13 11:19:46;;;;;;;;;49.75;37.75;;;;;10.19;100.00;103165.22;5029256;28;45388;-78
2023/02/13 11:22:14;;;;;;;;;48.75;39.00;;;;;10.28;100.00;103171.81;4995828;28;45599;-76
2023/02/13 11:24:41;;;;;;;;;47.00;35.25;;;;;10.33;100.00;103167.66;5031106;28;45603;-74
2023/02/13 11:27:12;;;;;;;;;43.75;35.25;;;;;10.38;100.00;103168.81;5016270;28;46586;-74
2023/02/13 11:29:54;;;;;;;;;41.25;33.75;;;;;10.43;100.00;103157.63;5015336;28;45624;-71
2023/02/13 11:32:26;;;;;;;;;45.75;36.00;;;;;10.51;100.00;103165.03;5016098;28;45421;-75
2023/02/13 11:34:53;;;;;;;;;45.75;36.25;;;;;10.56;100.00;103153.88;5016788;28;45563;-77
2023/02/13 11:37:18;;;;;;;;;45.50;36.50;;;;;10.63;100.00;103155.97;5015530;28;46611;-76
2023/02/13 11:39:46;;;;;;;;;42.50;35.75;;;;;10.67;100.00;103146.44;5012208;28;45497;-74
2023/02/13 11:42:36;;;;;;;;;45.50;34.25;;;;;10.75;100.00;103140.69;5015543;28;45495;-74
2023/02/13 11:45:05;;;;;;;;;50.00;36.50;;;;;10.78;100.00;103141.69;5026944;28;45484;-74
2023/02/13 11:47:37;;;;;;;;;47.50;35.50;;;;;10.84;100.00;103139.31;5007430;28;46493;-74
2023/02/13 11:50:04;;;;;;;;;48.50;34.00;;;;;10.88;100.00;103138.63;5012023;28;45458;-76
2023/02/13 11:52:32;;;;;;;;;44.75;35.50;;;;;10.94;100.00;103138.91;5008616;28;45612;-76
2023/02/13 11:55:03;;;;;;;;;40.25;35.50;;;;;11.00;100.00;103134.81;5015561;28;45347;-74
2023/02/13 11:57:32;;;;;;;;;50.25;36.25;;;;;11.07;100.00;103133.34;5000465;28;47009;-74
2023/02/13 11:59:59;;;;;;;;;44.75;35.50;;;;;11.11;100.00;103129.13;5013958;28;45365;-74
2023/02/13 12:02:30;;;;;;;;;45.75;37.75;;;;;11.12;100.00;103126.53;5013568;28;45717;-74
2023/02/13 12:05:20;;;;;;;;;38.75;33.50;;;;;11.22;100.00;103126.13;5012636;28;45767;-74
2023/02/13 12:07:46;;;;;;;;;52.00;40.00;;;;;11.27;100.00;103131.63;5006336;28;46125;-75